createdAt,value
2022-08-04T00:00:07.653Z,99.90
2022-08-04T00:03:14.060Z,99.90
2022-08-04T00:06:05.134Z,99.90
2022-08-04T00:08:58.380Z,99.90
2022-08-04T00:11:49.155Z,99.90
2022-08-04T00:14:37.968Z,99.90
2022-08-04T00:17:28.977Z,99.90
2022-08-04T00:20:18.659Z,99.90
2022-08-04T00:23:08.852Z,99.90
2022-08-04T00:25:56.457Z,99.90
2022-08-04T00:28:42.981Z,99.90
2022-08-04T00:31:53.890Z,99.90
2022-08-04T00:34:37.048Z,99.90
2022-08-04T00:37:25.013Z,99.90
2022-08-04T00:40:24.804Z,99.90
2022-08-04T00:43:21.671Z,99.90
2022-08-04T00:46:28.883Z,99.90
2022-08-04T00:49:42.460Z,99.90
2022-08-04T00:52:46.420Z,99.90
2022-08-04T00:55:35.512Z,99.90
2022-08-04T00:58:43.705Z,99.90
2022-08-04T01:01:45.517Z,99.90
2022-08-04T01:04:58.197Z,99.90
2022-08-04T01:08:05.942Z,99.90
2022-08-04T01:11:05.534Z,99.90
2022-08-04T01:14:18.277Z,99.90
2022-08-04T01:17:37.780Z,99.90
2022-08-04T01:20:26.296Z,99.90
2022-08-04T01:23:54.850Z,99.90
2022-08-04T01:27:01.434Z,99.50
2022-08-04T01:29:58.630Z,99.40
2022-08-04T01:32:53.752Z,99.10
2022-08-04T01:35:54.039Z,98.80
2022-08-04T01:38:41.114Z,98.60
2022-08-04T01:41:32.609Z,98.40
2022-08-04T01:44:20.908Z,98.10
2022-08-04T01:47:08.729Z,98.00
2022-08-04T01:49:55.135Z,97.90
2022-08-04T01:52:46.494Z,97.90
2022-08-04T01:55:54.421Z,97.80
2022-08-04T01:58:41.891Z,97.80
2022-08-04T02:01:28.299Z,97.50
2022-08-04T02:04:23.439Z,97.20
2022-08-04T02:07:32.548Z,97.00
2022-08-04T02:10:27.876Z,96.90
2022-08-04T02:13:50.756Z,96.80
2022-08-04T02:16:52.268Z,96.60
2022-08-04T02:19:49.197Z,96.60
2022-08-04T02:22:44.547Z,96.60
2022-08-04T02:25:39.381Z,96.60
2022-08-04T02:28:25.279Z,96.70
2022-08-04T02:31:28.862Z,96.60
2022-08-04T02:34:36.523Z,96.70
2022-08-04T02:37:24.502Z,96.70
2022-08-04T02:40:12.923Z,96.80
2022-08-04T02:43:00.093Z,96.90
2022-08-04T02:45:47.975Z,97.00
2022-08-04T02:48:36.844Z,97.00
2022-08-04T02:51:27.471Z,97.10
2022-08-04T02:54:16.243Z,97.10
2022-08-04T02:57:20.067Z,97.20
2022-08-04T03:00:14.697Z,97.20
2022-08-04T03:03:31.077Z,97.20
2022-08-04T03:06:29.270Z,97.10
2022-08-04T03:09:35.035Z,97.00
2022-08-04T03:12:53.229Z,97.00
2022-08-04T03:16:01.310Z,96.50
2022-08-04T03:19:17.265Z,96.40
2022-08-04T03:22:12.117Z,96.30
2022-08-04T03:25:28.627Z,96.20
2022-08-04T03:28:17.848Z,95.90
2022-08-04T03:31:09.713Z,95.80
2022-08-04T03:34:26.911Z,95.60
2022-08-04T03:37:54.102Z,95.30
2022-08-04T03:41:02.023Z,95.20
2022-08-04T03:44:30.023Z,95.20
2022-08-04T03:47:51.314Z,95.10
2022-08-04T03:51:35.169Z,95.10
2022-08-04T03:54:27.051Z,95.20
2022-08-04T03:57:43.598Z,95.20
2022-08-04T04:00:57.156Z,95.30
2022-08-04T04:04:10.381Z,95.30
2022-08-04T04:07:34.135Z,95.20
2022-08-04T04:10:49.039Z,95.20
2022-08-04T04:13:46.138Z,95.20
2022-08-04T04:16:38.815Z,95.20
2022-08-04T04:19:43.710Z,95.20
2022-08-04T04:22:38.188Z,95.20
2022-08-04T04:25:42.195Z,95.20
2022-08-04T04:28:52.505Z,95.20
2022-08-04T04:32:03.028Z,95.20
2022-08-04T04:35:13.591Z,95.20
2022-08-04T04:38:31.104Z,95.50
2022-08-04T04:41:33.026Z,95.40
2022-08-04T04:44:44.505Z,95.50
2022-08-04T04:48:12.117Z,95.70
2022-08-04T04:51:06.722Z,95.80
2022-08-04T04:54:06.088Z,96.00
2022-08-04T04:57:18.605Z,96.10
2022-08-04T05:00:14.129Z,96.30
2022-08-04T05:03:39.911Z,96.50
2022-08-04T05:06:34.312Z,96.70
2022-08-04T05:09:32.891Z,96.80
2022-08-04T05:14:22.907Z,97.00
2022-08-04T05:15:55.382Z,97.20
2022-08-04T05:18:47.979Z,97.20
2022-08-04T05:21:52.991Z,97.30
2022-08-04T05:24:42.995Z,97.40
2022-08-04T05:27:39.803Z,97.50
2022-08-04T05:30:28.292Z,97.60
2022-08-04T05:33:29.223Z,97.60
2022-08-04T05:36:39.904Z,97.60
2022-08-04T05:39:34.638Z,97.60
2022-08-04T05:42:21.639Z,97.50
2022-08-04T05:45:11.489Z,97.40
2022-08-04T05:47:57.760Z,97.20
2022-08-04T05:50:46.019Z,96.90
2022-08-04T05:53:32.834Z,96.70
2022-08-04T05:56:19.467Z,96.60
2022-08-04T05:59:06.656Z,96.60
2022-08-04T06:01:57.820Z,96.60
2022-08-04T06:04:47.363Z,96.60
2022-08-04T06:07:34.596Z,96.80
2022-08-04T06:10:42.469Z,96.50
2022-08-04T06:13:48.090Z,96.50
2022-08-04T06:16:42.356Z,96.50
2022-08-04T06:20:00.625Z,96.60
2022-08-04T06:22:45.189Z,96.70
2022-08-04T06:25:33.011Z,96.80
2022-08-04T06:28:20.433Z,97.00
2022-08-04T06:32:27.668Z,97.10
2022-08-04T06:34:16.753Z,97.30
2022-08-04T06:37:03.846Z,97.40
2022-08-04T06:39:53.412Z,97.30
2022-08-04T06:42:40.736Z,97.30
2022-08-04T06:45:27.216Z,97.30
2022-08-04T06:48:16.431Z,97.30
2022-08-04T06:51:26.619Z,97.30
2022-08-04T06:54:10.047Z,97.30
2022-08-04T06:56:59.067Z,97.20
2022-08-04T07:00:05.092Z,97.10
2022-08-04T07:02:52.825Z,97.10
2022-08-04T07:05:40.942Z,97.00
2022-08-04T07:08:27.462Z,97.00
2022-08-04T07:11:14.912Z,97.00
2022-08-04T07:14:01.155Z,96.90
2022-08-04T07:16:49.994Z,96.80
2022-08-04T07:19:37.008Z,96.80
2022-08-04T07:22:26.285Z,96.90
2022-08-04T07:25:13.196Z,96.90
2022-08-04T07:27:59.743Z,97.00
2022-08-04T07:30:47.180Z,97.00
2022-08-04T07:33:33.982Z,96.90
2022-08-04T07:36:20.395Z,96.80
2022-08-04T07:39:06.901Z,96.70
2022-08-04T07:41:55.428Z,96.70
2022-08-04T07:44:44.581Z,96.70
2022-08-04T07:47:33.071Z,96.70
2022-08-04T07:50:20.835Z,96.60
2022-08-04T07:53:52.828Z,96.60
2022-08-04T07:56:15.341Z,96.50
2022-08-04T07:59:02.324Z,96.50
2022-08-04T08:01:48.816Z,96.40
2022-08-04T08:04:35.300Z,96.30
2022-08-04T08:07:22.130Z,96.10
2022-08-04T08:10:15.809Z,96.10
2022-08-04T08:13:02.719Z,96.10
2022-08-04T08:15:49.451Z,96.10
2022-08-04T08:18:35.571Z,96.00
2022-08-04T08:21:22.405Z,95.80
2022-08-04T08:24:12.899Z,95.70
2022-08-04T08:27:00.431Z,95.70
2022-08-04T08:29:47.806Z,95.50
2022-08-04T08:32:34.193Z,95.30
2022-08-04T08:35:22.650Z,95.10
2022-08-04T08:38:10.995Z,94.80
2022-08-04T08:41:19.363Z,94.80
2022-08-04T08:44:19.340Z,94.80
2022-08-04T08:48:05.816Z,94.90
2022-08-04T08:51:07.974Z,94.80
2022-08-04T08:54:31.150Z,94.60
2022-08-04T08:57:37.916Z,94.40
2022-08-04T09:00:46.917Z,94.30
2022-08-04T09:03:52.047Z,94.10
2022-08-04T09:07:06.077Z,94.10
2022-08-04T09:10:01.078Z,94.10
2022-08-04T09:12:52.210Z,93.90
2022-08-04T09:15:54.440Z,93.80
2022-08-04T09:19:02.349Z,93.70
2022-08-04T09:22:12.347Z,93.40
2022-08-04T09:25:20.763Z,93.40
2022-08-04T09:28:37.122Z,93.10
2022-08-04T09:31:49.030Z,92.90
2022-08-04T09:35:16.203Z,92.70
2022-08-04T09:38:28.654Z,92.30
2022-08-04T09:41:35.983Z,92.00
2022-08-04T09:44:54.016Z,92.00
2022-08-04T09:48:11.176Z,91.90
2022-08-04T09:50:59.998Z,91.70
2022-08-04T09:58:15.945Z,91.40
2022-08-04T10:01:08.867Z,91.10
2022-08-04T10:04:09.968Z,90.90
2022-08-04T10:07:14.273Z,90.60
2022-08-04T10:10:28.499Z,90.40
2022-08-04T10:13:32.548Z,90.20
2022-08-04T10:16:52.373Z,90.10
2022-08-04T10:19:43.380Z,89.50
2022-08-04T10:23:24.045Z,89.50
2022-08-04T10:26:27.518Z,89.20
2022-08-04T10:29:17.518Z,89.40
2022-08-04T10:32:11.851Z,88.80
2022-08-04T10:35:14.782Z,88.00
2022-08-04T10:38:06.607Z,87.30
2022-08-04T10:41:23.525Z,87.30
2022-08-04T10:44:42.247Z,87.10
2022-08-04T10:47:38.308Z,86.70
2022-08-04T10:50:26.543Z,86.70
2022-08-04T10:53:18.512Z,86.80
2022-08-04T10:56:15.619Z,87.10
2022-08-04T10:59:18.892Z,87.40
2022-08-04T11:02:37.559Z,87.10
2022-08-04T11:05:49.785Z,86.90
2022-08-04T11:08:38.351Z,87.00
2022-08-04T11:12:01.448Z,87.00
2022-08-04T11:14:51.994Z,87.00
2022-08-04T11:17:47.105Z,86.60
2022-08-04T11:20:46.554Z,86.20
2022-08-04T11:23:41.692Z,85.60
2022-08-04T11:26:51.166Z,84.90
2022-08-04T11:30:03.835Z,85.00
2022-08-04T11:33:00.250Z,83.90
2022-08-04T11:35:57.783Z,83.90
2022-08-04T11:38:56.877Z,84.00
2022-08-04T11:42:28.895Z,84.00
2022-08-04T11:45:23.739Z,83.40
2022-08-04T11:48:28.764Z,83.40
2022-08-04T11:51:16.997Z,83.00
2022-08-04T11:54:03.565Z,83.00
2022-08-04T11:56:50.258Z,82.70
2022-08-04T11:59:37.340Z,82.10
2022-08-04T12:02:49.497Z,81.60
2022-08-04T12:05:46.913Z,80.90
2022-08-04T12:08:58.125Z,81.00
2022-08-04T12:12:03.094Z,80.50
2022-08-04T12:15:16.399Z,80.20
2022-08-04T12:18:02.648Z,79.40
2022-08-04T12:20:59.090Z,79.50
2022-08-04T12:23:47.435Z,79.30
2022-08-04T12:26:40.383Z,79.10
2022-08-04T12:29:30.952Z,78.80
2022-08-04T12:32:31.536Z,78.10
2022-08-04T12:35:31.040Z,77.30
2022-08-04T12:38:18.801Z,77.10
2022-08-04T12:41:05.230Z,77.10
2022-08-04T12:43:52.738Z,76.90
2022-08-04T12:46:40.139Z,77.10
2022-08-04T12:49:27.643Z,76.80
2022-08-04T12:52:16.856Z,76.70
2022-08-04T12:55:05.830Z,76.50
2022-08-04T12:57:53.254Z,75.40
2022-08-04T13:00:42.123Z,74.90
2022-08-04T13:03:37.479Z,75.00
2022-08-04T13:06:28.640Z,75.40
2022-08-04T13:09:20.962Z,75.20
2022-08-04T13:12:20.806Z,74.50
2022-08-04T13:15:17.999Z,73.40
2022-08-04T13:18:15.245Z,73.70
2022-08-04T13:21:19.620Z,73.70
2022-08-04T13:24:20.946Z,72.90
2022-08-04T13:27:16.306Z,72.90
2022-08-04T13:30:03.454Z,72.30
2022-08-04T13:32:59.014Z,72.10
2022-08-04T13:35:54.534Z,71.30
2022-08-04T13:38:51.562Z,71.30
2022-08-04T13:41:43.592Z,70.60
2022-08-04T13:44:34.148Z,70.10
2022-08-04T13:47:24.754Z,69.30
2022-08-04T13:50:36.697Z,70.00
2022-08-04T13:53:24.190Z,69.70
2022-08-04T13:56:15.044Z,69.40
2022-08-04T13:59:06.344Z,69.50
2022-08-04T14:02:07.400Z,69.60
2022-08-04T14:05:01.776Z,70.10
2022-08-04T14:07:54.189Z,71.00
2022-08-04T14:10:40.472Z,70.50
2022-08-04T14:13:41.999Z,70.50
2022-08-04T14:16:28.289Z,70.70
2022-08-04T14:19:14.353Z,70.60
2022-08-04T14:22:00.883Z,70.40
2022-08-04T14:24:59.925Z,70.30
2022-08-04T14:27:52.124Z,70.40
2022-08-04T14:30:38.370Z,70.60
2022-08-04T14:34:01.759Z,70.70
2022-08-04T14:37:00.652Z,70.50
2022-08-04T14:40:08.062Z,70.70
2022-08-04T14:43:02.699Z,69.60
2022-08-04T14:45:55.426Z,69.70
2022-08-04T14:49:10.810Z,69.90
2022-08-04T14:52:02.886Z,70.10
2022-08-04T14:54:48.983Z,70.20
2022-08-04T14:58:35.899Z,70.50
2022-08-04T15:00:43.565Z,70.60
2022-08-04T15:03:30.932Z,70.70
2022-08-04T15:06:21.623Z,70.70
2022-08-04T15:09:10.048Z,71.00
2022-08-04T15:11:56.310Z,70.70
2022-08-04T15:14:45.672Z,70.70
2022-08-04T15:17:32.162Z,70.30
2022-08-04T15:20:18.677Z,69.10
2022-08-04T15:23:10.661Z,68.20
2022-08-04T15:26:09.155Z,67.20
2022-08-04T15:29:02.715Z,66.70
2022-08-04T15:32:07.428Z,66.50
2022-08-04T15:35:03.356Z,66.90
2022-08-04T15:37:59.695Z,67.40
2022-08-04T15:40:55.388Z,67.90
2022-08-04T15:44:20.035Z,67.70
2022-08-04T15:47:16.685Z,67.50
2022-08-04T15:50:11.434Z,67.40
2022-08-04T15:53:12.826Z,66.80
2022-08-04T15:55:59.405Z,67.20
2022-08-04T15:58:54.877Z,67.60
2022-08-04T16:01:41.157Z,67.40
2022-08-04T16:04:47.159Z,67.30
2022-08-04T16:08:13.168Z,67.20
2022-08-04T16:10:59.734Z,67.20
2022-08-04T16:14:07.478Z,67.90
2022-08-04T16:16:53.692Z,67.30
2022-08-04T16:20:01.841Z,67.50
2022-08-04T16:22:51.478Z,68.00
2022-08-04T16:25:46.333Z,68.20
2022-08-04T16:28:35.948Z,67.90
2022-08-04T16:31:23.434Z,67.30
2022-08-04T16:34:48.025Z,66.70
2022-08-04T16:37:18.034Z,65.90
2022-08-04T16:40:29.768Z,65.60
2022-08-04T16:43:22.487Z,65.70
2022-08-04T16:46:18.377Z,66.00
2022-08-04T16:49:07.251Z,66.30
2022-08-04T16:51:54.213Z,67.00
2022-08-04T16:54:40.284Z,67.70
2022-08-04T16:57:27.803Z,68.10
2022-08-04T17:00:14.632Z,68.50
2022-08-04T17:03:05.552Z,68.60
2022-08-04T17:06:06.517Z,68.60
2022-08-04T17:08:52.880Z,68.80
2022-08-04T17:11:40.401Z,68.80
2022-08-04T17:14:31.327Z,68.70
2022-08-04T17:17:23.288Z,68.60
2022-08-04T17:20:09.884Z,68.90
2022-08-04T17:23:17.762Z,69.30
2022-08-04T17:26:39.972Z,69.40
2022-08-04T17:29:44.597Z,69.40
2022-08-04T17:32:31.093Z,69.50
2022-08-04T17:35:17.460Z,69.60
2022-08-04T17:38:06.959Z,69.80
2022-08-04T17:40:59.219Z,70.50
2022-08-04T17:44:06.376Z,70.20
2022-08-04T17:46:53.177Z,70.30
2022-08-04T17:49:52.883Z,70.30
2022-08-04T17:52:45.505Z,70.30
2022-08-04T17:55:49.553Z,70.30
2022-08-04T17:58:35.823Z,70.30
2022-08-04T18:01:24.922Z,70.10
2022-08-04T18:04:27.926Z,70.30
2022-08-04T18:08:46.278Z,70.40
2022-08-04T18:10:57.065Z,70.40
2022-08-04T18:13:52.357Z,70.40
2022-08-04T18:16:45.360Z,70.50
2022-08-04T18:19:31.683Z,70.40
2022-08-04T18:22:27.865Z,70.50
2022-08-04T18:25:21.414Z,70.50
2022-08-04T18:28:13.841Z,70.60
2022-08-04T18:31:01.879Z,70.60
2022-08-04T18:36:59.056Z,70.80
2022-08-04T18:40:09.617Z,70.70
2022-08-04T18:42:51.847Z,70.90
2022-08-04T18:45:37.686Z,71.00
2022-08-04T18:48:36.190Z,71.00
2022-08-04T18:51:25.188Z,71.10
2022-08-04T18:54:17.292Z,71.00
2022-08-04T18:57:24.819Z,70.90
2022-08-04T19:00:10.490Z,70.80
2022-08-04T19:02:57.341Z,70.80
2022-08-04T19:05:43.874Z,70.80
2022-08-04T19:08:42.027Z,70.90
2022-08-04T19:18:01.109Z,71.00
2022-08-04T19:20:49.022Z,70.90
2022-08-04T19:24:11.645Z,70.80
2022-08-04T19:26:42.065Z,70.90
2022-08-04T19:29:41.491Z,70.80
2022-08-04T19:32:29.324Z,70.60
2022-08-04T19:35:17.012Z,70.40
2022-08-04T19:38:04.051Z,70.30
2022-08-04T19:40:52.760Z,70.00
2022-08-04T19:43:43.820Z,70.10
2022-08-04T19:46:30.919Z,70.20
2022-08-04T19:50:05.054Z,69.90
2022-08-04T19:55:37.536Z,69.70
2022-08-04T19:58:26.726Z,69.70
2022-08-04T20:01:31.250Z,69.70
2022-08-04T20:04:19.951Z,69.70
2022-08-04T20:07:09.807Z,69.80
2022-08-04T20:10:04.608Z,70.00
2022-08-04T20:12:55.633Z,70.20
2022-08-04T20:15:55.469Z,70.10
2022-08-04T20:18:55.570Z,70.20
2022-08-04T20:21:54.884Z,70.30
2022-08-04T20:24:50.426Z,70.30
2022-08-04T20:27:59.333Z,70.20
2022-08-04T20:30:47.634Z,70.80
2022-08-04T20:33:35.279Z,70.20
2022-08-04T20:36:23.416Z,70.20
2022-08-04T20:39:10.975Z,70.80
2022-08-04T20:42:02.331Z,70.20
2022-08-04T20:44:48.791Z,70.20
2022-08-04T20:47:36.089Z,70.10
2022-08-04T20:53:52.801Z,69.80
2022-08-04T20:56:38.648Z,69.80
2022-08-04T20:59:37.926Z,69.70
2022-08-04T21:02:24.847Z,69.70
2022-08-04T21:05:12.947Z,69.80
2022-08-04T21:07:59.551Z,69.90
2022-08-04T21:10:47.445Z,70.10
2022-08-04T21:13:52.286Z,70.30
2022-08-04T21:16:55.049Z,70.40
2022-08-04T21:19:42.924Z,70.50
2022-08-04T21:22:35.979Z,70.60
2022-08-04T21:25:24.128Z,70.70
2022-08-04T21:28:10.875Z,70.80
2022-08-04T21:30:59.469Z,71.50
2022-08-04T21:33:50.931Z,71.00
2022-08-04T21:36:39.420Z,71.00
2022-08-04T21:39:32.358Z,71.10
2022-08-04T21:42:29.426Z,71.20
2022-08-04T21:45:22.496Z,71.30
2022-08-04T21:48:09.186Z,71.40
2022-08-04T21:50:55.565Z,71.50
2022-08-04T21:53:44.096Z,71.60
2022-08-04T21:56:34.540Z,71.60
2022-08-04T21:59:30.714Z,71.60
2022-08-04T22:02:17.515Z,71.70
2022-08-04T22:05:04.035Z,71.60
2022-08-04T22:07:53.530Z,71.50
2022-08-04T22:10:39.478Z,71.60
2022-08-04T22:16:39.827Z,71.60
2022-08-04T22:19:50.070Z,71.50
2022-08-04T22:22:37.877Z,71.60
2022-08-04T22:25:24.074Z,71.60
2022-08-04T22:28:18.815Z,71.70
2022-08-04T22:31:23.853Z,71.70
2022-08-04T22:34:11.359Z,71.80
2022-08-04T22:36:59.166Z,71.90
2022-08-04T22:39:56.576Z,72.00
2022-08-04T22:42:43.112Z,72.00
2022-08-04T22:45:44.376Z,72.00
2022-08-04T22:48:32.612Z,72.10
2022-08-04T22:51:20.887Z,72.10
2022-08-04T22:54:12.383Z,72.20
2022-08-04T22:56:59.096Z,72.30
2022-08-04T22:59:46.823Z,72.30
2022-08-04T23:02:35.651Z,72.40
2022-08-04T23:05:22.700Z,72.50
2022-08-04T23:08:18.347Z,72.60
2022-08-04T23:11:10.750Z,72.60
2022-08-04T23:13:57.125Z,72.70
2022-08-04T23:16:47.866Z,72.80
2022-08-04T23:19:39.719Z,73.00
2022-08-04T23:22:42.075Z,73.20
2022-08-04T23:25:33.262Z,73.20
2022-08-04T23:28:36.904Z,73.30
2022-08-04T23:31:40.428Z,73.40
2022-08-04T23:34:29.269Z,73.50
2022-08-04T23:37:16.160Z,73.70
2022-08-04T23:40:15.582Z,73.90
2022-08-04T23:43:17.149Z,74.00
2022-08-04T23:46:08.199Z,74.00
2022-08-04T23:48:54.578Z,74.20
2022-08-04T23:51:43.258Z,74.20
2022-08-04T23:54:29.253Z,74.20
2022-08-04T23:57:19.241Z,74.90
